Time;durP1;ratioP1;P1;durP2;ratioP2;P2;SDS_P1;SDS_P2;PMS_P1;PMS_P2;Temp;Humidity;BMP_temperature;BMP_pressure;BME280_temperature;BME280_humidity;BME280_pressure;Samples;Min_cycle;Max_cycle;Signal;HPM_P1;HPM_P2
2023/01/15 00:00:40;;;;;;;;;2.00;1.33;;;;;13.71;52.70;100296.09;5055636;28;46054;-74
2023/01/15 00:03:06;;;;;;;;;3.33;2.67;;;;;13.76;52.68;100303.16;5055214;28;45387;-74
2023/01/15 00:05:35;;;;;;;;;2.00;2.00;;;;;13.78;53.10;100307.53;5055464;28;45352;-74
2023/01/15 00:08:01;;;;;;;;;2.00;2.00;;;;;13.76;52.77;100308.41;5055562;28;45497;-75
2023/01/15 00:10:27;;;;;;;;;1.67;1.67;;;;;13.76;52.79;100311.03;5054980;28;45589;-74
2023/01/15 00:12:53;;;;;;;;;1.00;1.00;;;;;13.76;52.91;100317.16;5055167;28;45495;-73
2023/01/15 00:15:18;;;;;;;;;2.00;2.00;;;;;13.68;52.34;100268.91;5058276;28;45233;-72
2023/01/15 00:17:44;;;;;;;;;1.33;1.33;;;;;13.82;52.65;100288.34;5059527;28;45460;-75
2023/01/15 00:20:10;;;;;;;;;2.00;2.00;;;;;13.79;52.43;100293.56;5058781;28;46072;-74
2023/01/15 00:22:36;;;;;;;;;2.00;2.00;;;;;13.78;52.66;100288.28;5058722;28;45497;-75
2023/01/15 00:27:45;;;;;;;;;2.00;1.33;;;;;13.67;53.12;100293.41;5056734;28;45491;-71
2023/01/15 00:30:14;;;;;;;;;2.67;2.00;;;;;13.61;53.27;100291.59;5058741;28;45532;-75
2023/01/15 00:32:41;;;;;;;;;2.00;1.00;;;;;13.58;53.62;100295.91;5058265;28;45450;-72
2023/01/15 00:35:12;;;;;;;;;2.00;1.33;;;;;13.59;52.92;100282.81;5058637;28;45486;-73
2023/01/15 00:37:38;;;;;;;;;3.00;3.00;;;;;13.57;53.24;100273.13;5058618;28;45385;-73
2023/01/15 00:40:04;;;;;;;;;2.00;2.00;;;;;13.55;53.46;100285.34;5057729;28;45682;-75
2023/01/15 00:42:29;;;;;;;;;2.00;2.00;;;;;13.57;53.16;100276.66;5058592;28;45990;-74
2023/01/15 00:44:54;;;;;;;;;2.33;2.00;;;;;13.61;53.19;100272.31;5058566;28;45613;-73
2023/01/15 00:47:20;;;;;;;;;1.33;1.33;;;;;13.69;53.03;100284.69;5056040;28;45536;-74
2023/01/15 00:49:46;;;;;;;;;2.67;2.67;;;;;13.66;52.87;100276.75;5058305;28;45536;-71
2023/01/15 00:52:11;;;;;;;;;1.67;1.67;;;;;13.72;52.58;100270.72;5058523;28;45403;-73
2023/01/15 00:54:37;;;;;;;;;4.00;2.00;;;;;13.77;52.85;100281.25;5058159;28;45418;-75
2023/01/15 00:57:02;;;;;;;;;3.00;3.00;;;;;13.71;52.76;100267.22;5058155;28;45751;-73
2023/01/15 00:59:28;;;;;;;;;2.00;2.00;;;;;13.76;52.76;100256.75;5057994;28;45720;-71
2023/01/15 01:01:53;;;;;;;;;4.00;3.00;;;;;13.78;52.71;100262.91;5057986;28;45285;-74
2023/01/15 01:04:19;;;;;;;;;2.67;2.00;;;;;13.82;52.35;100267.34;5058022;28;45462;-74
2023/01/15 01:06:45;;;;;;;;;2.00;2.00;;;;;13.84;52.55;100264.75;5058609;28;45431;-72
2023/01/15 01:09:13;;;;;;;;;1.00;1.00;;;;;13.85;52.20;100256.00;5058176;28;46276;-74
2023/01/15 01:11:39;;;;;;;;;2.00;1.67;;;;;13.89;52.51;100263.06;5057910;28;45383;-74
2023/01/15 01:14:04;;;;;;;;;2.00;2.00;;;;;13.79;52.47;100256.81;5058062;28;45416;-67
2023/01/15 01:16:36;;;;;;;;;1.67;1.67;;;;;13.80;52.71;100252.44;5058196;28;45301;-74
2023/01/15 01:19:14;;;;;;;;;3.00;3.00;;;;;13.78;52.48;100248.91;5055252;28;45543;-68
2023/01/15 01:21:42;;;;;;;;;2.67;2.67;;;;;13.71;52.70;100250.59;5057777;28;45430;-71
2023/01/15 01:24:10;;;;;;;;;2.00;2.00;;;;;13.67;52.82;100239.16;5057788;28;45426;-74
2023/01/15 01:26:35;;;;;;;;;1.00;1.00;;;;;13.66;52.84;100247.88;5057079;28;45597;-73
2023/01/15 01:29:01;;;;;;;;;3.00;3.00;;;;;13.64;52.80;100254.88;5057555;28;45397;-70
2023/01/15 01:31:27;;;;;;;;;1.00;1.00;;;;;13.66;52.70;100257.50;5057633;28;45431;-74
2023/01/15 01:33:55;;;;;;;;;1.33;1.33;;;;;13.67;52.57;100261.91;5057459;28;45388;-75
2023/01/15 01:36:30;;;;;;;;;2.00;2.00;;;;;13.68;52.88;100269.78;5055075;28;45255;-74
2023/01/15 01:38:55;;;;;;;;;4.00;2.33;;;;;13.68;53.04;100266.28;5057169;28;45340;-74
2023/01/15 01:41:21;;;;;;;;;2.67;2.33;;;;;13.66;52.89;100273.25;5057491;28;45407;-74
2023/01/15 01:44:00;;;;;;;;;2.00;2.00;;;;;13.64;53.32;100261.88;5057710;28;45389;-71
2023/01/15 01:46:28;;;;;;;;;2.67;2.00;;;;;13.71;52.96;100267.22;5055661;28;45535;-73
2023/01/15 01:48:59;;;;;;;;;5.67;3.67;;;;;13.77;52.88;100270.75;5057084;28;45521;-72
2023/01/15 01:51:31;;;;;;;;;3.00;3.00;;;;;13.63;52.87;100260.13;5054930;28;45347;-74
2023/01/15 01:53:58;;;;;;;;;2.33;2.33;;;;;13.71;53.07;100276.84;5057145;28;45438;-73
2023/01/15 01:56:24;;;;;;;;;2.00;2.00;;;;;13.71;53.00;100275.09;5057279;28;45355;-67
2023/01/15 01:58:53;;;;;;;;;3.00;3.00;;;;;13.73;53.08;100280.38;5056951;28;46314;-73
2023/01/15 02:01:22;;;;;;;;;2.00;2.00;;;;;13.72;53.05;100281.22;5057044;28;45527;-72
2023/01/15 02:03:48;;;;;;;;;2.33;2.33;;;;;13.73;52.71;100283.00;5057064;28;45512;-74
2023/01/15 02:06:14;;;;;;;;;3.00;3.00;;;;;13.70;53.12;100288.19;5057505;28;45428;-75
2023/01/15 02:08:41;;;;;;;;;3.00;2.00;;;;;13.50;52.88;100259.94;5058148;28;46200;-71
2023/01/15 02:11:11;;;;;;;;;3.00;2.00;;;;;13.77;52.92;100294.38;5057883;28;45428;-74
2023/01/15 02:13:53;;;;;;;;;2.00;2.00;;;;;13.75;52.91;100304.00;5058058;28;45514;-74
2023/01/15 02:16:24;;;;;;;;;2.00;2.00;;;;;13.72;53.14;100310.97;5056612;28;45465;-72
2023/01/15 02:19:11;;;;;;;;;3.00;2.67;;;;;13.73;53.10;100310.13;5058519;28;45463;-73
2023/01/15 02:21:52;;;;;;;;;3.67;3.67;;;;;13.73;52.84;100315.38;5058587;28;45478;-73
2023/01/15 02:24:43;;;;;;;;;3.00;3.00;;;;;13.73;52.91;100315.38;5058719;28;45320;-73
2023/01/15 02:27:19;;;;;;;;;2.00;2.00;;;;;13.72;53.03;100313.59;5058690;28;45356;-75
2023/01/15 02:29:57;;;;;;;;;4.00;4.00;;;;;13.70;53.25;100336.31;5058406;28;45477;-69
2023/01/15 02:32:31;;;;;;;;;2.67;2.67;;;;;13.54;53.06;100315.97;5058430;28;45524;-74
2023/01/15 02:35:06;;;;;;;;;3.67;3.67;;;;;13.42;53.24;100316.66;5058582;28;45455;-73
2023/01/15 02:37:35;;;;;;;;;5.00;5.00;;;;;13.51;53.10;100343.06;5057481;28;45512;-74
2023/01/15 02:40:04;;;;;;;;;7.00;7.00;;;;;13.26;53.47;100318.16;5058087;28;46181;-74
2023/01/15 02:42:32;;;;;;;;;4.67;4.00;;;;;13.50;53.34;100359.66;5058320;28;45335;-75
2023/01/15 02:45:01;;;;;;;;;3.33;3.00;;;;;13.39;53.72;100349.84;5058286;28;45477;-74
2023/01/15 02:47:32;;;;;;;;;1.67;1.67;;;;;13.57;53.23;100371.16;5058323;28;45481;-74
2023/01/15 02:50:03;;;;;;;;;1.33;1.33;;;;;13.64;53.39;100369.47;5057808;28;46046;-75
2023/01/15 02:52:36;;;;;;;;;2.33;2.00;;;;;13.68;53.25;100371.28;5058141;28;45427;-74
2023/01/15 02:55:16;;;;;;;;;3.00;2.00;;;;;13.76;52.76;100374.03;5058282;28;45280;-74
2023/01/15 02:57:45;;;;;;;;;2.67;2.67;;;;;13.83;53.10;100386.41;5058078;28;45620;-75
2023/01/15 03:00:13;;;;;;;;;3.00;3.00;;;;;13.83;52.80;100379.38;5057789;28;46169;-75
2023/01/15 03:02:49;;;;;;;;;2.00;2.00;;;;;13.92;52.54;100397.88;5057930;28;45453;-74
2023/01/15 03:05:22;;;;;;;;;3.00;3.00;;;;;13.97;52.80;100390.09;5058345;28;45435;-74
2023/01/15 03:07:56;;;;;;;;;3.33;2.33;;;;;13.98;52.64;100404.97;5058394;28;45249;-75
2023/01/15 03:10:39;;;;;;;;;2.33;1.00;;;;;13.91;52.82;100418.91;5057726;28;45269;-71
2023/01/15 03:13:06;;;;;;;;;2.00;1.00;;;;;14.03;60.29;100447.94;5057891;28;45253;-74
2023/01/15 03:18:51;;;;;;;;;0.00;0.00;;;;;13.93;63.48;100433.81;5058005;28;45581;-74
2023/01/15 03:21:25;;;;;;;;;0.67;0.00;;;;;13.95;65.51;100446.97;5057906;28;46072;-75
2023/01/15 03:23:54;;;;;;;;;1.00;0.00;;;;;13.60;65.49;100407.03;5057754;28;45426;-72
2023/01/15 03:26:19;;;;;;;;;0.33;0.00;;;;;13.90;65.62;100452.13;5058081;28;45625;-73
2023/01/15 03:28:47;;;;;;;;;0.00;0.00;;;;;13.92;67.34;100452.16;5058105;28;45631;-74
2023/01/15 03:31:14;;;;;;;;;0.67;0.67;;;;;13.89;68.51;100453.00;5057246;28;46046;-74
2023/01/15 03:33:40;;;;;;;;;0.00;0.00;;;;;13.87;68.28;100454.72;5057503;28;46006;-71
2023/01/15 03:36:06;;;;;;;;;3.33;1.00;;;;;13.70;71.23;100436.06;5057598;28;45314;-74
2023/01/15 03:38:35;;;;;;;;;3.00;2.33;;;;;13.87;70.18;100473.09;5057738;28;45315;-74
2023/01/15 03:41:42;;;;;;;;;8.00;6.00;;;;;13.87;70.41;100480.09;5057297;28;45455;-73
2023/01/15 03:44:36;;;;;;;;;3.00;2.33;;;;;13.91;68.88;100480.16;4995075;28;45482;-75
2023/01/15 03:47:04;;;;;;;;;1.67;1.00;;;;;13.76;70.83;100481.66;5056047;28;45347;-74
2023/01/15 03:49:43;;;;;;;;;1.00;0.00;;;;;13.64;72.02;100495.47;5057009;28;45474;-74
2023/01/15 03:52:27;;;;;;;;;1.00;1.00;;;;;13.63;70.46;100491.09;5057156;28;45525;-75
2023/01/15 03:55:16;;;;;;;;;0.00;0.00;;;;;13.58;71.75;100490.13;5057303;28;45430;-70
2023/01/15 03:57:48;;;;;;;;;0.33;0.00;;;;;13.59;71.21;100495.41;5057401;28;45485;-74
2023/01/15 04:00:30;;;;;;;;;0.00;0.00;;;;;13.58;71.13;100503.25;5057312;28;45473;-74
2023/01/15 04:02:59;;;;;;;;;1.00;0.00;;;;;13.56;71.99;100505.84;5057164;28;46133;-75
2023/01/15 04:05:27;;;;;;;;;0.67;0.00;;;;;13.54;71.86;100510.19;5056943;28;45225;-74
2023/01/15 04:07:54;;;;;;;;;0.00;0.00;;;;;13.43;73.68;100514.34;5057039;28;45322;-67
2023/01/15 04:10:20;;;;;;;;;0.00;0.00;;;;;13.41;73.45;100519.59;5057569;28;45514;-74
2023/01/15 04:12:46;;;;;;;;;0.00;0.00;;;;;13.41;73.61;100523.94;5056906;28;45485;-74
2023/01/15 04:15:12;;;;;;;;;0.00;0.00;;;;;13.34;74.46;100536.06;5057069;28;45451;-74
2023/01/15 04:17:37;;;;;;;;;0.00;0.00;;;;;13.36;73.33;100559.72;5057127;28;45434;-74
2023/01/15 04:20:04;;;;;;;;;0.00;0.00;;;;;13.28;72.93;100572.66;5057151;28;45823;-75
2023/01/15 04:22:30;;;;;;;;;1.00;0.00;;;;;13.22;73.60;100604.00;5056835;28;46057;-66
2023/01/15 04:24:56;;;;;;;;;0.00;0.00;;;;;13.06;74.05;100624.69;5057006;28;45433;-74
2023/01/15 04:27:21;;;;;;;;;0.00;0.00;;;;;12.80;73.08;100657.31;5057462;28;45253;-75
2023/01/15 04:29:47;;;;;;;;;0.00;0.00;;;;;12.58;72.53;100661.19;5055773;28;45724;-74
2023/01/15 04:32:13;;;;;;;;;0.00;0.00;;;;;12.37;73.48;100678.13;5056006;28;45490;-74
2023/01/15 04:34:38;;;;;;;;;0.00;0.00;;;;;12.35;72.63;100671.97;5056796;28;45264;-75
2023/01/15 04:37:04;;;;;;;;;0.00;0.00;;;;;12.24;72.92;100700.53;5056909;28;45380;-75
2023/01/15 04:39:30;;;;;;;;;0.00;0.00;;;;;11.97;73.30;100723.38;5056515;28;45422;-74
2023/01/15 04:44:39;;;;;;;;;0.00;0.00;;;;;11.78;73.69;100749.00;5056536;28;45508;-74
2023/01/15 04:47:05;;;;;;;;;0.00;0.00;;;;;11.71;74.19;100747.06;5056584;28;45357;-75
2023/01/15 04:49:32;;;;;;;;;0.00;0.00;;;;;11.65;73.65;100753.00;5056220;28;45605;-73
2023/01/15 04:51:58;;;;;;;;;0.00;0.00;;;;;11.61;73.79;100758.97;5056174;28;45310;-74
2023/01/15 04:54:24;;;;;;;;;0.00;0.00;;;;;11.62;73.06;100755.53;5056455;28;45253;-74
2023/01/15 04:56:51;;;;;;;;;0.00;0.00;;;;;11.61;73.00;100756.38;5056294;28;45573;-74
2023/01/15 04:59:20;;;;;;;;;0.00;0.00;;;;;11.61;73.29;100764.22;5056253;28;45461;-74
2023/01/15 05:01:46;;;;;;;;;0.67;0.00;;;;;11.62;73.00;100765.09;5058189;28;46122;-73
2023/01/15 05:04:11;;;;;;;;;0.00;0.00;;;;;11.54;73.27;100770.13;5060615;28;45413;-74
2023/01/15 05:06:37;;;;;;;;;0.00;0.00;;;;;11.50;73.55;100771.75;5060404;28;45353;-74
2023/01/15 05:09:04;;;;;;;;;0.00;0.00;;;;;11.44;74.06;100775.91;5060361;28;45490;-74
2023/01/15 05:11:33;;;;;;;;;0.00;0.00;;;;;11.44;73.96;100778.50;5059766;28;46142;-72
2023/01/15 05:13:58;;;;;;;;;0.00;0.00;;;;;11.43;74.01;100782.88;5059386;28;45452;-74
2023/01/15 05:16:27;;;;;;;;;0.00;0.00;;;;;11.44;74.08;100782.03;5059600;28;45443;-74
2023/01/15 05:18:55;;;;;;;;;0.00;0.00;;;;;11.50;74.51;100791.81;5059942;28;45545;-73
2023/01/15 05:21:27;;;;;;;;;0.00;0.00;;;;;11.50;74.27;100791.81;5059664;28;46210;-74
2023/01/15 05:23:56;;;;;;;;;0.00;0.00;;;;;11.51;74.27;100806.66;5059668;28;45552;-74
2023/01/15 05:26:22;;;;;;;;;0.00;0.00;;;;;11.51;74.29;100817.13;5059616;28;45460;-72
2023/01/15 05:28:48;;;;;;;;;0.00;0.00;;;;;11.48;73.56;100814.38;5059787;28;45403;-73
2023/01/15 05:31:16;;;;;;;;;0.00;0.00;;;;;11.47;73.63;100810.91;5059339;28;46204;-74
2023/01/15 05:33:43;;;;;;;;;0.00;0.00;;;;;11.47;73.48;100810.91;5059507;28;45417;-73
2023/01/15 05:36:11;;;;;;;;;0.00;0.00;;;;;11.41;73.78;100807.22;5059473;28;45386;-73
2023/01/15 05:38:38;;;;;;;;;0.00;0.00;;;;;11.48;73.55;100828.38;5059528;28;45435;-74
2023/01/15 05:43:49;;;;;;;;;0.00;0.00;;;;;11.38;73.82;100854.19;5059193;28;45327;-73
2023/01/15 05:46:14;;;;;;;;;0.00;0.00;;;;;11.10;73.95;100820.22;5058808;28;45434;-73
2023/01/15 05:48:40;;;;;;;;;0.00;0.00;;;;;11.10;74.17;100851.59;5057669;28;45438;-74
2023/01/15 05:51:06;;;;;;;;;0.00;0.00;;;;;11.14;73.76;100863.94;5058504;28;46187;-73
2023/01/15 05:53:33;;;;;;;;;0.00;0.00;;;;;11.05;72.86;100863.63;5058451;28;45418;-67
2023/01/15 05:56:06;;;;;;;;;0.00;0.00;;;;;11.00;72.90;100866.91;5058500;28;45356;-67
2023/01/15 05:58:32;;;;;;;;;0.00;0.00;;;;;10.90;73.25;100869.25;5058278;28;45469;-74
2023/01/15 06:00:57;;;;;;;;;0.00;0.00;;;;;10.83;73.13;100875.09;5058553;28;46161;-73
2023/01/15 06:03:24;;;;;;;;;1.00;1.00;;;;;10.63;74.18;100863.06;5058248;28;45724;-73
2023/01/15 06:05:54;;;;;;;;;0.00;0.00;;;;;10.70;73.54;100868.56;5058563;28;45505;-72
2023/01/15 06:08:20;;;;;;;;;0.00;0.00;;;;;10.75;73.54;100880.03;5059164;28;45342;-74
2023/01/15 06:10:46;;;;;;;;;2.50;1.00;;;;;10.78;73.36;100889.69;5058764;28;46261;-74
2023/01/15 06:13:12;;;;;;;;;0.33;0.00;;;;;10.85;73.27;100896.94;5058685;28;45363;-73
2023/01/15 06:15:38;;;;;;;;;1.00;0.00;;;;;10.70;73.94;100896.38;5058017;28;45448;-67
2023/01/15 06:18:04;;;;;;;;;0.00;0.00;;;;;10.49;73.98;100865.19;5058122;28;45539;-74
2023/01/15 06:20:29;;;;;;;;;3.75;3.50;;;;;10.67;74.56;100909.38;5057967;28;45481;-74
2023/01/15 06:22:55;;;;;;;;;14.00;11.50;;;;;10.63;74.64;100910.09;5058023;28;45291;-74
2023/01/15 06:25:21;;;;;;;;;14.25;10.25;;;;;10.35;75.43;100888.19;5057918;28;45503;-74
2023/01/15 06:27:48;;;;;;;;;9.00;7.25;;;;;10.52;75.46;100930.59;5058044;28;45379;-74
2023/01/15 06:30:14;;;;;;;;;5.00;4.25;;;;;10.60;75.25;100933.47;5057566;28;45414;-73
2023/01/15 06:32:40;;;;;;;;;5.75;4.00;;;;;10.62;74.34;100937.91;5057680;28;45448;-71
2023/01/15 06:35:05;;;;;;;;;1.25;1.25;;;;;10.62;74.65;100942.25;5058679;28;45907;-73
2023/01/15 06:37:31;;;;;;;;;1.00;0.00;;;;;10.59;74.13;100947.41;5058786;28;45498;-67
2023/01/15 06:39:56;;;;;;;;;0.00;0.00;;;;;10.38;74.03;100948.38;5058562;28;46160;-74
2023/01/15 06:47:53;;;;;;;;;1.33;0.00;;;;;10.38;74.38;100966.63;5058326;28;45383;-72
2023/01/15 06:50:19;;;;;;;;;4.00;2.75;;;;;10.40;73.89;100970.19;5058355;28;46255;-75
2023/01/15 06:52:44;;;;;;;;;1.00;0.00;;;;;10.43;74.20;100961.63;5058333;28;45488;-74
2023/01/15 06:55:10;;;;;;;;;0.00;0.00;;;;;10.38;74.61;100968.38;5058481;28;45471;-74
2023/01/15 06:57:40;;;;;;;;;0.00;0.00;;;;;10.38;74.82;100971.88;5058222;28;45318;-74
2023/01/15 07:00:07;;;;;;;;;1.25;0.25;;;;;10.26;75.01;100955.72;5057972;28;46050;-73
2023/01/15 07:02:32;;;;;;;;;0.00;0.00;;;;;10.32;73.37;100969.91;5058053;28;45379;-72
2023/01/15 07:04:58;;;;;;;;;0.00;0.00;;;;;10.11;74.72;100969.97;5058472;28;45378;-72
2023/01/15 07:07:24;;;;;;;;;0.00;0.00;;;;;10.05;74.22;100963.63;5058347;28;45284;-74
2023/01/15 07:09:49;;;;;;;;;1.00;0.00;;;;;10.03;74.25;100968.78;5057943;28;46163;-73
2023/01/15 07:12:16;;;;;;;;;1.00;0.00;;;;;10.12;74.28;100976.06;5057705;28;45425;-71
2023/01/15 07:14:41;;;;;;;;;0.00;0.00;;;;;10.20;74.07;100979.84;5058119;28;45528;-69
2023/01/15 07:17:07;;;;;;;;;0.00;0.00;;;;;10.16;73.28;100957.06;5059097;28;45414;-74
2023/01/15 07:19:33;;;;;;;;;2.00;1.00;;;;;10.30;73.20;100978.53;5057878;28;46074;-74
2023/01/15 07:21:58;;;;;;;;;0.50;0.50;;;;;10.30;72.50;100974.19;5061190;28;45510;-74
2023/01/15 07:24:24;;;;;;;;;8.00;8.00;;;;;10.15;73.05;100940.53;5057608;28;45520;-69
2023/01/15 07:26:49;;;;;;;;;3.00;1.75;;;;;10.39;72.68;100978.00;5058082;28;45342;-74
2023/01/15 07:29:15;;;;;;;;;5.50;4.75;;;;;10.39;73.40;100980.63;5057551;28;46180;-73
2023/01/15 07:31:40;;;;;;;;;13.00;11.25;;;;;10.37;73.28;100977.94;5057429;28;45441;-73
2023/01/15 07:34:07;;;;;;;;;2.00;1.50;;;;;10.35;72.31;100984.81;5057712;28;45485;-74
2023/01/15 07:36:32;;;;;;;;;1.75;1.00;;;;;10.35;72.41;100983.09;5058221;28;45303;-73
2023/01/15 07:38:58;;;;;;;;;9.00;7.50;;;;;10.35;72.67;100977.00;5057008;28;46171;-74
2023/01/15 07:49:47;;;;;;;;;17.50;16.75;;;;;10.48;72.26;100999.22;5057138;28;45857;-73
2023/01/15 07:52:20;;;;;;;;;8.25;8.25;;;;;10.49;72.40;100994.06;5057251;28;45365;-73
2023/01/15 07:54:47;;;;;;;;;1.25;0.50;;;;;10.50;72.13;101005.38;5057460;28;45497;-74
2023/01/15 07:57:19;;;;;;;;;2.00;1.50;;;;;10.51;71.22;100995.00;5057265;28;45411;-73
2023/01/15 07:59:44;;;;;;;;;2.50;2.00;;;;;10.45;71.78;100989.56;5056976;28;46025;-73
2023/01/15 08:02:10;;;;;;;;;8.00;3.50;;;;;10.50;71.32;100995.84;5056832;28;45407;-73
2023/01/15 08:04:36;;;;;;;;;5.50;5.50;;;;;10.52;71.39;100986.34;5057163;28;45483;-71
2023/01/15 08:07:03;;;;;;;;;11.00;10.00;;;;;10.37;71.21;100964.00;5057594;28;45525;-74
2023/01/15 08:09:29;;;;;;;;;9.50;8.25;;;;;10.56;71.14;100997.78;5056908;28;45445;-74
2023/01/15 08:17:26;;;;;;;;;5.75;4.50;;;;;10.56;70.80;101018.69;5057232;28;45383;-74
2023/01/15 08:19:51;;;;;;;;;4.50;4.00;;;;;10.53;71.94;101013.34;5042815;28;45975;-73
2023/01/15 08:22:17;;;;;;;;;0.00;0.00;;;;;10.52;71.18;101011.56;5036718;28;45375;-73
2023/01/15 08:24:42;;;;;;;;;2.00;1.00;;;;;10.54;71.07;101004.69;5036555;28;45352;-74
2023/01/15 08:27:08;;;;;;;;;4.00;3.00;;;;;10.58;70.87;101011.78;5036762;28;45313;-71
2023/01/15 08:29:33;;;;;;;;;12.25;11.00;;;;;10.58;71.13;101017.00;5036855;28;46201;-74
2023/01/15 08:31:59;;;;;;;;;26.25;24.50;;;;;10.59;71.41;101012.72;5054645;28;45341;-73
2023/01/15 08:34:25;;;;;;;;;12.00;12.00;;;;;10.61;71.24;101011.03;5056297;28;45463;-66
2023/01/15 08:36:55;;;;;;;;;11.50;9.75;;;;;10.59;70.92;101003.13;5059699;28;45409;-73
2023/01/15 08:39:22;;;;;;;;;24.75;22.25;;;;;10.58;71.16;100996.13;5056767;28;45437;-65
2023/01/15 08:41:47;;;;;;;;;2.75;1.75;;;;;10.62;71.52;100994.50;5059324;28;46039;-73
2023/01/15 08:44:15;;;;;;;;;10.50;10.25;;;;;10.65;71.03;101007.72;5059740;28;45474;-74
2023/01/15 08:46:41;;;;;;;;;10.00;9.50;;;;;10.65;71.09;101021.66;5060322;28;45450;-73
2023/01/15 08:49:09;;;;;;;;;14.50;12.75;;;;;10.66;70.69;101007.72;5060230;28;45950;-72
2023/01/15 08:51:34;;;;;;;;;17.50;17.00;;;;;10.65;69.87;101005.97;5060573;28;45303;-73
2023/01/15 08:54:00;;;;;;;;;10.00;8.00;;;;;10.61;69.56;101008.44;5059499;28;45312;-73
2023/01/15 08:56:26;;;;;;;;;3.00;3.00;;;;;10.60;70.52;101014.47;5059161;28;45473;-71
2023/01/15 08:58:51;;;;;;;;;3.00;2.50;;;;;10.55;70.39;101015.19;5059191;28;45343;-71
2023/01/15 09:01:17;;;;;;;;;2.25;2.00;;;;;10.53;69.52;101015.97;5041350;28;45362;-72
2023/01/15 09:03:42;;;;;;;;;2.00;0.50;;;;;10.57;69.45;101014.38;5059548;28;45538;-73
2023/01/15 09:06:09;;;;;;;;;11.50;9.50;;;;;10.59;69.23;101015.31;5059721;28;45419;-74
2023/01/15 09:08:36;;;;;;;;;10.25;9.25;;;;;10.47;68.58;100993.13;5058947;28;46199;-73
2023/01/15 09:11:03;;;;;;;;;14.50;13.00;;;;;10.59;69.02;101008.38;5059222;28;45302;-74
2023/01/15 09:13:30;;;;;;;;;10.00;8.25;;;;;10.44;68.50;101008.66;5058917;28;45427;-76
2023/01/15 09:15:59;;;;;;;;;10.00;10.00;;;;;10.50;69.10;101023.69;5059125;28;45557;-75
2023/01/15 09:18:25;;;;;;;;;5.50;5.50;;;;;10.50;69.60;101042.88;5058667;28;45343;-74
2023/01/15 09:20:51;;;;;;;;;0.00;0.00;;;;;10.30;70.06;101004.63;5058731;28;45342;-73
2023/01/15 09:23:17;;;;;;;;;3.25;3.25;;;;;10.49;70.46;101038.47;5058517;28;45521;-74
2023/01/15 09:26:31;;;;;;;;;1.75;1.00;;;;;9.73;70.11;100922.38;5058897;28;45371;-72
2023/01/15 09:28:57;;;;;;;;;0.00;0.00;;;;;10.45;70.63;101044.41;5053536;28;45373;-73
2023/01/15 09:31:23;;;;;;;;;1.25;1.00;;;;;10.46;69.37;101046.19;5060022;28;45470;-75
2023/01/15 09:33:49;;;;;;;;;2.00;2.00;;;;;10.42;67.59;101057.34;5059227;28;45459;-75
2023/01/15 09:36:23;;;;;;;;;0.00;0.00;;;;;10.43;69.36;101055.63;5058794;28;45486;-75
2023/01/15 09:38:49;;;;;;;;;2.00;2.00;;;;;10.20;66.82;101045.13;5058358;28;46030;-74
2023/01/15 09:44:32;;;;;;;;;1.00;1.00;;;;;10.25;65.52;101079.28;5057330;28;45474;-75
2023/01/15 09:47:06;;;;;;;;;0.50;0.00;;;;;10.26;66.81;101068.00;5056231;28;45498;-75
2023/01/15 09:49:49;;;;;;;;;1.75;1.75;;;;;10.28;65.20;101079.38;5055570;28;45571;-74
2023/01/15 09:52:29;;;;;;;;;2.00;1.00;;;;;10.18;64.97;101083.34;5055873;28;45500;-74
2023/01/15 09:55:14;;;;;;;;;2.00;1.25;;;;;10.20;64.47;101086.91;5056175;28;45430;-73
2023/01/15 09:57:41;;;;;;;;;2.75;2.00;;;;;10.18;66.77;101106.84;5057323;28;45310;-74
2023/01/15 10:00:16;;;;;;;;;14.50;12.25;;;;;10.19;67.81;101100.81;5058257;28;46219;-75
2023/01/15 10:03:20;;;;;;;;;4.00;3.00;;;;;10.14;66.60;101110.16;5058261;28;45395;-75
2023/01/15 10:05:48;;;;;;;;;2.75;1.00;;;;;10.08;67.28;101122.97;5048775;28;45505;-72
2023/01/15 10:08:37;;;;;;;;;0.75;0.00;;;;;10.05;66.82;101128.97;5058178;28;45558;-72
2023/01/15 10:11:15;;;;;;;;;5.50;4.25;;;;;10.09;66.58;101116.94;5057784;28;46210;-73
2023/01/15 10:14:00;;;;;;;;;1.00;1.00;;;;;9.87;66.57;101074.28;5058398;28;45471;-73
2023/01/15 10:16:30;;;;;;;;;2.75;2.25;;;;;10.31;66.10;101116.13;5058267;28;45360;-73
2023/01/15 10:18:57;;;;;;;;;0.75;0.00;;;;;10.51;65.57;101114.28;5058259;28;45476;-73
2023/01/15 10:21:23;;;;;;;;;0.25;0.25;;;;;10.66;64.20;101106.16;5055289;28;46067;-73
2023/01/15 10:24:01;;;;;;;;;2.50;1.00;;;;;10.70;64.28;101098.50;5057799;28;45435;-65
2023/01/15 10:26:56;;;;;;;;;1.75;1.00;;;;;10.69;63.43;101087.97;5056335;28;45323;-74
2023/01/15 10:29:42;;;;;;;;;9.25;9.25;;;;;10.67;63.40;101080.09;5055554;28;45323;-74
2023/01/15 10:32:13;;;;;;;;;11.50;11.50;;;;;10.68;63.75;101078.34;5055906;28;45344;-75
2023/01/15 10:35:02;;;;;;;;;11.00;10.25;;;;;10.74;63.26;101071.66;5039448;28;45327;-74
2023/01/15 10:37:41;;;;;;;;;12.50;11.00;;;;;10.91;62.94;101081.84;5055392;28;45481;-74
2023/01/15 10:40:30;;;;;;;;;14.25;13.25;;;;;11.10;62.45;101083.38;5058220;28;45415;-75
2023/01/15 10:43:23;;;;;;;;;15.75;13.50;;;;;11.21;62.70;101084.69;5057798;28;45585;-75
2023/01/15 10:46:00;;;;;;;;;9.00;9.00;;;;;11.28;61.73;101075.31;5057906;28;45325;-75
2023/01/15 10:48:47;;;;;;;;;4.25;4.25;;;;;11.32;60.97;101080.72;5057228;28;45955;-78
2023/01/15 10:51:36;;;;;;;;;2.50;2.50;;;;;11.35;60.39;101069.47;5058856;28;45438;-75
2023/01/15 10:54:23;;;;;;;;;9.75;8.00;;;;;11.42;60.85;101062.72;5048236;28;46047;-75
2023/01/15 10:57:34;;;;;;;;;5.25;5.00;;;;;11.61;59.79;101053.78;5039562;28;45574;-74
2023/01/15 11:00:01;;;;;;;;;5.75;4.50;;;;;11.76;59.36;101054.31;5010281;28;45450;-71
2023/01/15 11:02:39;;;;;;;;;4.75;3.00;;;;;11.80;59.46;101055.28;5039911;28;45514;-74
2023/01/15 11:05:05;;;;;;;;;3.25;3.00;;;;;11.80;59.24;101045.72;5057640;28;46045;-74
2023/01/15 11:07:46;;;;;;;;;2.00;2.00;;;;;11.74;59.45;101042.91;5057500;28;45511;-75
2023/01/15 11:10:14;;;;;;;;;1.67;1.00;;;;;11.70;59.61;101039.28;5057747;28;45600;-74
2023/01/15 11:21:18;;;;;;;;;5.50;5.00;;;;;12.19;59.32;101012.91;5058177;28;45449;-68
2023/01/15 11:23:45;;;;;;;;;22.75;20.50;;;;;12.38;58.91;101019.63;5058138;28;45453;-76
2023/01/15 11:26:30;;;;;;;;;14.00;12.25;;;;;12.45;58.20;100993.63;5057718;28;45323;-74
2023/01/15 11:28:58;;;;;;;;;11.25;9.25;;;;;12.79;57.35;101004.19;5057501;28;45271;-76
2023/01/15 11:31:38;;;;;;;;;37.50;33.00;;;;;12.90;55.77;100977.44;5057556;28;45461;-75
2023/01/15 11:34:15;;;;;;;;;105.50;86.75;;;;;13.40;56.10;100994.50;5056238;28;45538;-71
2023/01/15 11:36:41;;;;;;;;;1.00;0.25;;;;;13.55;55.82;101004.50;5053841;28;45677;-72
2023/01/15 11:39:26;;;;;;;;;6.75;5.75;;;;;13.67;55.29;101016.22;5056353;28;45548;-73
2023/01/15 11:50:54;;;;;;;;;1.00;1.00;;;;;13.49;55.78;100997.38;5055854;28;45391;-74
2023/01/15 11:53:28;;;;;;;;;1.00;1.00;;;;;13.39;56.36;100984.84;5056458;28;45509;-72
2023/01/15 11:56:05;;;;;;;;;2.00;2.00;;;;;13.38;56.73;100972.59;5056658;28;45364;-71
2023/01/15 11:58:40;;;;;;;;;3.33;3.00;;;;;13.50;56.94;100989.53;5054587;28;45427;-74
2023/01/15 12:01:06;;;;;;;;;3.00;2.00;;;;;13.48;56.55;100985.09;5054194;28;45172;-71
2023/01/15 12:03:35;;;;;;;;;2.33;2.00;;;;;13.44;56.69;100983.25;5056538;28;45590;-73
2023/01/15 12:06:06;;;;;;;;;4.75;4.50;;;;;13.28;56.52;100980.19;5057015;28;45429;-73
2023/01/15 12:08:42;;;;;;;;;3.67;3.33;;;;;13.05;56.99;100986.56;5056274;28;46038;-75
2023/01/15 12:11:35;;;;;;;;;3.00;3.00;;;;;12.89;57.70;100980.00;5050912;28;45769;-74
2023/01/15 12:14:07;;;;;;;;;22.75;19.50;;;;;13.01;57.31;100969.88;5042805;28;45544;-72
2023/01/15 12:17:13;;;;;;;;;22.00;20.00;;;;;13.13;56.07;100967.56;5045547;28;45470;-78
2023/01/15 12:19:53;;;;;;;;;4.00;4.00;;;;;13.22;55.57;100924.06;5047470;28;45669;-79
2023/01/15 12:22:44;;;;;;;;;2.33;1.00;;;;;13.88;53.69;100975.56;5047203;28;45506;-81
2023/01/15 12:25:28;;;;;;;;;0.00;0.00;;;;;13.70;54.59;100982.13;5020646;28;45767;-83
2023/01/15 12:27:56;;;;;;;;;2.00;1.33;;;;;13.37;56.26;101003.22;5034652;28;45509;-72
2023/01/15 12:30:25;;;;;;;;;2.00;1.00;;;;;13.03;57.56;101006.63;5051547;28;47091;-76